Terminal Aerodrome Forecast
Issued by NWS

Home | Current Version | Previous Version | Text Only | Print | Product List | Glossary Off
Versions: 1 2 3 4 5 6 7 8 9 10 11 12 13 14 15 16 17

017
FTUS43 KGRB 131721
TAFAUW
TAF
KAUW 131721Z 1318/1418 30006KT P6SM SKC
     FM140100 29003KT P6SM SKC
     FM140800 VRB02KT P6SM SCT250
     FM141200 17003KT P6SM SCT140 BKN200
     FM141700 18007KT P6SM SCT040 BKN120=

USA.gov is the U.S. government's official web portal to all federal, state and local government web resources and services.